createdAt,value
2022-09-28T00:00:48.302Z,3.39
2022-09-28T00:01:50.851Z,5.06
2022-09-28T00:02:53.581Z,4.19
2022-09-28T00:03:56.496Z,5.67
2022-09-28T00:04:58.967Z,4.29
2022-09-28T00:06:01.445Z,7.56
2022-09-28T00:07:03.910Z,7.41
2022-09-28T00:08:06.371Z,4.29
2022-09-28T00:09:08.827Z,5.90
2022-09-28T00:10:11.665Z,7.12
2022-09-28T00:11:14.189Z,4.16
2022-09-28T00:12:16.644Z,5.14
2022-09-28T00:13:19.089Z,6.83
2022-09-28T00:14:21.533Z,8.15
2022-09-28T00:15:23.971Z,7.03
2022-09-28T00:16:26.856Z,6.35
2022-09-28T00:17:29.421Z,5.83
2022-09-28T00:18:31.862Z,6.01
2022-09-28T00:19:34.304Z,5.70
2022-09-28T00:20:37.100Z,4.89
2022-09-28T00:21:39.608Z,7.18
2022-09-28T00:22:42.051Z,6.78
2022-09-28T00:23:44.541Z,8.09
2022-09-28T00:24:47.006Z,3.44
2022-09-28T00:25:49.444Z,4.68
2022-09-28T00:26:52.229Z,4.74
2022-09-28T00:27:54.691Z,4.13
2022-09-28T00:28:57.138Z,8.53
2022-09-28T00:29:59.586Z,4.83
2022-09-28T00:31:02.325Z,6.77
2022-09-28T00:32:04.993Z,4.45
2022-09-28T00:33:07.444Z,3.69
2022-09-28T00:34:09.882Z,7.56
2022-09-28T00:35:12.383Z,4.66
2022-09-28T00:36:15.324Z,6.71
2022-09-28T00:37:17.802Z,7.53
2022-09-28T00:38:20.277Z,5.25
2022-09-28T00:39:22.964Z,3.87
2022-09-28T00:40:25.683Z,6.59
2022-09-28T00:41:28.172Z,7.81
2022-09-28T00:42:30.657Z,9.79
2022-09-28T00:43:33.095Z,4.37
2022-09-28T00:44:35.546Z,5.97
2022-09-28T00:45:38.033Z,5.26
2022-09-28T00:46:40.734Z,5.36
2022-09-28T00:47:43.418Z,4.83
2022-09-28T00:48:45.855Z,6.90
2022-09-28T00:49:48.303Z,7.56
2022-09-28T00:50:50.851Z,5.98
2022-09-28T00:51:53.290Z,6.95
2022-09-28T00:52:55.761Z,5.91
2022-09-28T00:53:58.203Z,4.86
2022-09-28T00:55:00.651Z,6.79
2022-09-28T00:56:03.207Z,9.03
2022-09-28T00:57:05.646Z,5.46
2022-09-28T00:58:08.132Z,3.93
2022-09-28T00:59:10.578Z,6.31
2022-09-28T01:00:13.348Z,4.60
2022-09-28T01:01:15.871Z,4.93
2022-09-28T01:02:18.411Z,5.03
2022-09-28T01:03:21.268Z,6.43
2022-09-28T01:04:27.980Z,4.37
2022-09-28T01:05:28.176Z,6.45
2022-09-28T01:06:30.827Z,5.25
2022-09-28T01:07:33.263Z,5.23
2022-09-28T01:08:35.736Z,7.70
2022-09-28T01:09:38.181Z,4.19
2022-09-28T01:10:40.931Z,5.08
2022-09-28T01:11:43.417Z,8.23
2022-09-28T01:12:46.178Z,5.61
2022-09-28T01:13:48.651Z,6.12
2022-09-28T01:14:51.126Z,5.56
2022-09-28T01:15:53.740Z,6.54
2022-09-28T01:16:56.273Z,6.38
2022-09-28T01:17:58.715Z,7.23
2022-09-28T01:19:01.190Z,7.86
2022-09-28T01:20:03.654Z,6.61
2022-09-28T01:21:06.089Z,5.39
2022-09-28T01:22:08.758Z,5.33
2022-09-28T01:23:11.202Z,5.10
2022-09-28T01:24:13.689Z,8.95
2022-09-28T01:25:16.128Z,4.61
2022-09-28T01:26:18.789Z,8.82
2022-09-28T01:27:21.244Z,20.17
2022-09-28T01:28:23.693Z,6.09
2022-09-28T01:29:26.273Z,7.64
2022-09-28T01:30:28.822Z,6.50
2022-09-28T01:31:31.331Z,5.15
2022-09-28T01:32:33.936Z,5.27
2022-09-28T01:33:36.376Z,8.61
2022-09-28T01:34:38.864Z,13.23
2022-09-28T01:35:41.329Z,4.79
2022-09-28T01:36:43.976Z,5.18
2022-09-28T01:37:46.445Z,6.20
2022-09-28T01:38:48.887Z,6.04
2022-09-28T01:39:51.444Z,8.15
2022-09-28T01:40:54.025Z,5.59
2022-09-28T01:41:56.731Z,5.85
2022-09-28T01:42:59.171Z,9.54
2022-09-28T01:44:01.612Z,5.47
2022-09-28T01:45:04.123Z,6.27
2022-09-28T01:46:06.804Z,7.03
2022-09-28T01:47:09.338Z,6.26
2022-09-28T01:48:11.775Z,6.83
2022-09-28T01:49:14.321Z,8.74
2022-09-28T01:50:18.105Z,7.01
2022-09-28T01:51:20.554Z,9.51
2022-09-28T01:52:22.994Z,9.18
2022-09-28T01:53:25.538Z,5.71
2022-09-28T01:54:28.331Z,6.61
2022-09-28T01:55:30.796Z,8.97
2022-09-28T01:56:33.466Z,9.85
2022-09-28T01:57:35.921Z,6.84
2022-09-28T01:58:38.357Z,9.91
2022-09-28T01:59:40.826Z,5.64
2022-09-28T02:00:43.545Z,13.27
2022-09-28T02:01:46.111Z,11.09
2022-09-28T02:02:48.618Z,7.83
2022-09-28T02:03:51.071Z,8.14
2022-09-28T02:04:53.612Z,8.17
2022-09-28T02:05:56.125Z,5.33
2022-09-28T02:06:58.869Z,9.81
2022-09-28T02:08:01.313Z,10.31
2022-09-28T02:09:03.754Z,7.81
2022-09-28T02:10:06.294Z,13.02
2022-09-28T02:11:08.756Z,8.23
2022-09-28T02:12:11.190Z,7.65
2022-09-28T02:13:13.638Z,12.20
2022-09-28T02:14:16.078Z,9.76
2022-09-28T02:15:18.513Z,7.79
2022-09-28T02:16:21.106Z,15.54
2022-09-28T02:17:23.617Z,11.08
2022-09-28T02:18:26.064Z,16.54
2022-09-28T02:19:28.529Z,10.99
2022-09-28T02:20:31.429Z,14.09
2022-09-28T02:21:34.171Z,11.01
2022-09-28T02:22:36.822Z,11.69
2022-09-28T02:23:39.258Z,10.03
2022-09-28T02:24:41.692Z,11.75
2022-09-28T02:25:44.127Z,9.16
2022-09-28T02:26:46.959Z,15.35
2022-09-28T02:27:49.471Z,9.45
2022-09-28T02:28:51.933Z,8.99
2022-09-28T02:29:54.374Z,13.76
2022-09-28T02:30:56.909Z,9.03
2022-09-28T02:31:59.406Z,10.95
2022-09-28T02:33:01.837Z,13.98
2022-09-28T02:34:04.298Z,11.07
2022-09-28T02:35:06.735Z,12.67
2022-09-28T02:36:09.992Z,14.64
2022-09-28T02:37:12.514Z,11.23
2022-09-28T02:38:14.951Z,11.51
2022-09-28T02:39:17.438Z,10.29
2022-09-28T02:40:20.109Z,11.97
2022-09-28T02:41:22.698Z,11.64
2022-09-28T02:42:25.169Z,11.49
2022-09-28T02:43:27.748Z,15.49
2022-09-28T02:44:30.213Z,10.79
2022-09-28T02:45:32.669Z,10.40
2022-09-28T02:46:35.394Z,9.44
2022-09-28T02:47:37.858Z,12.45
2022-09-28T02:48:44.118Z,12.35
2022-09-28T02:49:44.677Z,14.04
2022-09-28T02:50:47.314Z,12.44
2022-09-28T02:51:49.749Z,19.09
2022-09-28T02:52:52.212Z,11.59
2022-09-28T02:53:54.650Z,10.41
2022-09-28T02:54:57.081Z,9.96
2022-09-28T02:55:59.519Z,9.92
2022-09-28T02:57:02.061Z,14.19
2022-09-28T02:58:04.546Z,11.59
2022-09-28T02:59:07.015Z,10.32
2022-09-28T03:00:10.409Z,12.74
2022-09-28T03:01:12.900Z,12.36
2022-09-28T03:02:15.530Z,14.01
2022-09-28T03:03:18.264Z,13.83
2022-09-28T03:04:20.695Z,13.35
2022-09-28T03:05:23.132Z,16.27
2022-09-28T03:06:25.617Z,12.67
2022-09-28T03:07:28.048Z,12.75
2022-09-28T03:08:30.515Z,13.90
2022-09-28T03:09:32.962Z,12.97
2022-09-28T03:10:35.622Z,10.43
2022-09-28T03:11:38.055Z,12.05
2022-09-28T03:12:40.520Z,13.50
2022-09-28T03:13:42.977Z,14.00
2022-09-28T03:14:45.621Z,13.08
2022-09-28T03:15:49.084Z,15.45
2022-09-28T03:16:52.221Z,11.15
2022-09-28T03:17:54.688Z,11.22
2022-09-28T03:18:57.720Z,16.93
2022-09-28T03:20:00.160Z,12.14
2022-09-28T03:21:02.594Z,14.39
2022-09-28T03:22:05.227Z,11.42
2022-09-28T03:23:25.109Z,14.79
2022-09-28T03:24:12.428Z,14.34
2022-09-28T03:25:14.900Z,14.78
2022-09-28T03:26:17.748Z,14.51
2022-09-28T03:27:20.199Z,13.15
2022-09-28T03:28:22.666Z,11.48
2022-09-28T03:29:25.121Z,16.13
2022-09-28T03:30:28.116Z,12.38
2022-09-28T03:31:30.616Z,16.49
2022-09-28T03:32:33.197Z,12.54
2022-09-28T03:33:35.781Z,15.09
2022-09-28T03:34:38.260Z,13.77
2022-09-28T03:35:40.698Z,13.94
2022-09-28T03:36:43.241Z,11.73
2022-09-28T03:37:45.676Z,14.69
2022-09-28T03:38:48.128Z,15.87
2022-09-28T03:39:50.640Z,17.85
2022-09-28T03:40:53.389Z,15.75
2022-09-28T03:41:55.943Z,14.39
2022-09-28T03:42:58.417Z,13.99
2022-09-28T03:44:00.855Z,15.71
2022-09-28T03:45:03.353Z,12.68
2022-09-28T03:46:06.079Z,17.35
2022-09-28T03:47:08.746Z,15.29
2022-09-28T03:48:11.187Z,14.35
2022-09-28T03:49:13.686Z,13.33
2022-09-28T03:50:16.826Z,11.97
2022-09-28T03:51:19.268Z,12.61
2022-09-28T03:52:21.704Z,10.09
2022-09-28T03:53:24.143Z,13.00
2022-09-28T03:54:26.578Z,12.55
2022-09-28T03:55:29.072Z,15.55
2022-09-28T03:56:31.806Z,12.52
2022-09-28T03:57:34.248Z,15.47
2022-09-28T03:58:36.687Z,12.86
2022-09-28T03:59:39.131Z,12.07
2022-09-28T04:00:41.958Z,14.43
2022-09-28T04:01:44.477Z,11.35
2022-09-28T04:02:46.993Z,12.13
2022-09-28T04:03:49.427Z,12.59
2022-09-28T04:04:53.111Z,13.26
2022-09-28T04:05:55.795Z,10.41
2022-09-28T04:06:58.460Z,11.18
2022-09-28T04:08:00.912Z,10.37
2022-09-28T04:09:03.373Z,9.40
2022-09-28T04:10:06.251Z,9.55
2022-09-28T04:11:08.763Z,11.04
2022-09-28T04:12:11.227Z,9.25
2022-09-28T04:13:13.781Z,9.01
2022-09-28T04:14:16.249Z,10.72
2022-09-28T04:15:18.747Z,11.03
2022-09-28T04:16:22.041Z,8.74
2022-09-28T04:17:24.654Z,10.11
2022-09-28T04:18:27.103Z,11.81
2022-09-28T04:19:29.559Z,9.90
2022-09-28T04:20:32.314Z,11.79
2022-09-28T04:21:35.047Z,9.16
2022-09-28T04:22:37.501Z,10.16
2022-09-28T04:23:39.970Z,11.73
2022-09-28T04:24:42.435Z,9.58
2022-09-28T04:25:44.893Z,11.97
2022-09-28T04:26:47.673Z,10.34
2022-09-28T04:27:50.123Z,8.33
2022-09-28T04:28:52.705Z,8.49
2022-09-28T04:29:55.182Z,9.87
2022-09-28T04:30:58.074Z,12.91
2022-09-28T04:32:00.621Z,11.91
2022-09-28T04:33:03.118Z,11.72
2022-09-28T04:34:05.566Z,9.57
2022-09-28T04:35:08.009Z,9.67
2022-09-28T04:36:12.280Z,9.87
2022-09-28T04:37:15.068Z,12.23
2022-09-28T04:38:30.675Z,10.93
2022-09-28T04:39:22.419Z,11.54
2022-09-28T04:40:24.949Z,10.83
2022-09-28T04:41:27.486Z,14.03
2022-09-28T04:42:29.966Z,12.81
2022-09-28T04:43:32.414Z,11.53
2022-09-28T04:44:34.863Z,9.52
2022-09-28T04:45:37.384Z,12.25
2022-09-28T04:46:40.177Z,10.97
2022-09-28T04:47:42.656Z,13.24
2022-09-28T04:48:45.093Z,10.35
2022-09-28T04:49:47.559Z,9.15
2022-09-28T04:50:50.018Z,11.61
2022-09-28T04:51:52.457Z,11.51
2022-09-28T04:52:54.944Z,15.11
2022-09-28T04:53:57.384Z,12.34
2022-09-28T04:54:59.829Z,14.39
2022-09-28T04:56:02.410Z,10.47
2022-09-28T04:57:05.014Z,11.79
2022-09-28T04:58:07.509Z,11.13
2022-09-28T04:59:10.039Z,14.32
2022-09-28T05:00:14.005Z,12.75
2022-09-28T05:01:16.753Z,11.29
2022-09-28T05:02:19.268Z,14.11
2022-09-28T05:03:22.010Z,14.85
2022-09-28T05:04:26.123Z,15.54
2022-09-28T05:05:28.907Z,12.66
2022-09-28T05:06:31.550Z,14.49
2022-09-28T05:07:34.200Z,12.11
2022-09-28T05:08:36.665Z,17.05
2022-09-28T05:09:39.107Z,13.11
2022-09-28T05:10:41.648Z,15.95
2022-09-28T05:11:44.111Z,11.56
2022-09-28T05:12:46.581Z,12.19
2022-09-28T05:13:49.070Z,11.55
2022-09-28T05:14:51.520Z,12.25
2022-09-28T05:15:58.067Z,11.25
2022-09-28T05:16:58.615Z,13.40
2022-09-28T05:18:01.214Z,14.07
2022-09-28T05:19:03.716Z,11.79
2022-09-28T05:20:06.869Z,13.77
2022-09-28T05:21:09.320Z,12.12
2022-09-28T05:22:11.753Z,13.73
2022-09-28T05:23:14.195Z,17.21
2022-09-28T05:24:16.690Z,10.72
2022-09-28T05:25:19.128Z,16.29
2022-09-28T05:26:21.980Z,10.89
2022-09-28T05:27:24.450Z,13.75
2022-09-28T05:28:26.895Z,13.27
2022-09-28T05:29:32.255Z,10.80
2022-09-28T05:30:34.163Z,13.15
2022-09-28T05:31:36.650Z,11.47
2022-09-28T05:32:39.150Z,12.33
2022-09-28T05:33:41.596Z,11.39
2022-09-28T05:34:44.143Z,13.29
2022-09-28T05:35:51.039Z,11.15
2022-09-28T05:36:51.150Z,10.77
2022-09-28T05:37:53.596Z,12.21
2022-09-28T05:38:56.042Z,12.11
2022-09-28T05:39:58.536Z,12.21
2022-09-28T05:41:05.731Z,13.86
2022-09-28T05:42:05.558Z,12.86
2022-09-28T05:43:08.006Z,13.16
2022-09-28T05:44:10.516Z,11.63
2022-09-28T05:45:13.126Z,12.71
2022-09-28T05:46:16.800Z,12.00
2022-09-28T05:47:19.362Z,17.16
2022-09-28T05:48:21.805Z,9.73
2022-09-28T05:49:24.273Z,12.77
2022-09-28T05:50:26.772Z,11.55
2022-09-28T05:51:29.219Z,9.85
2022-09-28T05:52:31.800Z,9.25
2022-09-28T05:53:34.277Z,10.35
2022-09-28T05:54:36.725Z,10.33
2022-09-28T05:55:39.204Z,10.45
2022-09-28T05:56:42.147Z,9.33
2022-09-28T05:57:44.593Z,11.42
2022-09-28T05:58:47.072Z,10.99
2022-09-28T05:59:49.512Z,12.47
2022-09-28T06:00:52.218Z,10.90
2022-09-28T06:01:54.834Z,11.33
2022-09-28T06:02:57.273Z,11.63
2022-09-28T06:03:59.792Z,9.08
2022-09-28T06:05:02.241Z,12.99
2022-09-28T06:06:04.840Z,9.02
2022-09-28T06:07:07.283Z,10.25
2022-09-28T06:08:09.923Z,11.99
2022-09-28T06:09:12.390Z,8.81
2022-09-28T06:10:15.337Z,12.37
2022-09-28T06:11:17.855Z,8.37
2022-09-28T06:12:20.294Z,9.57
2022-09-28T06:13:22.740Z,11.07
2022-09-28T06:14:25.196Z,13.10
2022-09-28T06:15:27.735Z,9.70
2022-09-28T06:16:30.446Z,9.30
2022-09-28T06:17:32.888Z,10.17
2022-09-28T06:18:35.330Z,9.74
2022-09-28T06:19:37.775Z,11.05
2022-09-28T06:20:40.739Z,9.89
2022-09-28T06:21:43.247Z,10.95
2022-09-28T06:22:45.691Z,11.23
2022-09-28T06:23:49.380Z,9.65
2022-09-28T06:24:52.111Z,14.10
2022-09-28T06:25:56.377Z,10.72
2022-09-28T06:26:59.265Z,12.16
2022-09-28T06:28:01.706Z,14.61
2022-09-28T06:29:04.149Z,15.31
2022-09-28T06:30:07.224Z,12.10
2022-09-28T06:31:09.791Z,13.72
2022-09-28T06:32:12.369Z,11.21
2022-09-28T06:33:14.807Z,12.53
2022-09-28T06:34:17.399Z,14.33
2022-09-28T06:35:20.331Z,11.59
2022-09-28T06:36:22.886Z,15.55
2022-09-28T06:37:25.358Z,12.37
2022-09-28T06:38:27.796Z,11.93
2022-09-28T06:39:30.243Z,11.35
2022-09-28T06:40:33.052Z,13.17
2022-09-28T06:41:35.621Z,11.05
2022-09-28T06:42:38.189Z,13.95
2022-09-28T06:43:40.676Z,13.67
2022-09-28T06:44:43.114Z,11.43
2022-09-28T06:45:45.578Z,14.76
2022-09-28T06:46:48.418Z,16.85
2022-09-28T06:47:50.882Z,9.35
2022-09-28T06:48:53.336Z,9.45
2022-09-28T06:49:55.779Z,8.32
2022-09-28T06:50:58.417Z,12.33
2022-09-28T06:52:00.877Z,10.24
2022-09-28T06:53:03.356Z,10.09
2022-09-28T06:54:05.810Z,12.00
2022-09-28T06:55:08.290Z,11.29
2022-09-28T06:56:11.272Z,9.76
2022-09-28T06:57:13.704Z,11.63
2022-09-28T06:58:16.196Z,9.69
2022-09-28T06:59:18.632Z,10.83
2022-09-28T07:00:21.301Z,9.01
2022-09-28T07:01:23.802Z,9.29
2022-09-28T07:02:26.330Z,9.65
2022-09-28T07:03:28.891Z,8.52
2022-09-28T07:04:31.406Z,10.91
2022-09-28T07:05:33.960Z,12.80
2022-09-28T07:06:36.711Z,12.63
2022-09-28T07:07:39.345Z,12.53
2022-09-28T07:08:41.823Z,12.04
2022-09-28T07:09:49.338Z,13.58
2022-09-28T07:10:48.962Z,14.44
2022-09-28T07:11:51.397Z,12.05
2022-09-28T07:12:53.833Z,13.34
2022-09-28T07:13:56.365Z,9.36
2022-09-28T07:14:58.835Z,12.47
2022-09-28T07:16:01.269Z,9.33
2022-09-28T07:17:14.240Z,7.28
2022-09-28T07:18:08.144Z,8.41
2022-09-28T07:19:10.666Z,7.62
2022-09-28T07:20:18.890Z,7.89
2022-09-28T07:21:27.168Z,10.84
2022-09-28T07:22:37.260Z,9.38
2022-09-28T07:23:27.118Z,8.65
2022-09-28T07:24:29.703Z,6.57
2022-09-28T07:25:32.140Z,6.95
2022-09-28T07:26:35.089Z,8.44
2022-09-28T07:27:37.528Z,6.40
2022-09-28T07:28:39.987Z,5.89
2022-09-28T07:29:42.469Z,6.31
2022-09-28T07:30:45.159Z,7.07
2022-09-28T07:31:47.857Z,6.06
2022-09-28T07:32:50.293Z,5.03
2022-09-28T07:33:52.728Z,5.59
2022-09-28T07:34:58.781Z,6.31
2022-09-28T07:35:59.540Z,6.14
2022-09-28T07:37:02.079Z,5.16
2022-09-28T07:38:04.528Z,10.62
2022-09-28T07:39:06.982Z,7.55
2022-09-28T07:40:10.067Z,5.83
2022-09-28T07:41:12.803Z,7.28
2022-09-28T07:42:15.449Z,5.41
2022-09-28T07:43:17.923Z,8.71
2022-09-28T07:44:20.378Z,10.69
2022-09-28T07:45:22.853Z,4.71
2022-09-28T07:46:25.553Z,4.13
2022-09-28T07:47:33.835Z,5.42
2022-09-28T07:48:32.927Z,5.86
2022-09-28T07:49:35.362Z,6.11
2022-09-28T07:50:38.040Z,5.26
2022-09-28T07:51:40.472Z,3.87
2022-09-28T07:52:42.909Z,4.37
2022-09-28T07:53:45.349Z,4.86
2022-09-28T07:54:47.830Z,6.43
2022-09-28T07:55:50.288Z,3.44
2022-09-28T07:56:52.725Z,4.71
2022-09-28T07:57:55.166Z,5.11
2022-09-28T07:58:57.630Z,4.18
2022-09-28T08:00:00.087Z,3.29
2022-09-28T08:01:02.586Z,6.20
2022-09-28T08:02:05.508Z,3.96
2022-09-28T08:03:07.926Z,6.15
2022-09-28T08:04:10.404Z,3.84
2022-09-28T08:05:12.873Z,5.31
2022-09-28T08:06:15.934Z,3.29
2022-09-28T08:07:22.801Z,4.36
2022-09-28T08:08:23.115Z,5.20
2022-09-28T08:09:25.570Z,4.82
2022-09-28T08:10:28.005Z,6.45
2022-09-28T08:11:30.482Z,5.57
2022-09-28T08:12:32.920Z,5.39
2022-09-28T08:13:35.360Z,6.12
2022-09-28T08:14:37.791Z,9.61
2022-09-28T08:15:40.360Z,6.45
2022-09-28T08:16:43.243Z,10.18
2022-09-28T08:17:45.878Z,6.52
2022-09-28T08:18:48.323Z,5.52
2022-09-28T08:19:50.778Z,8.12
2022-09-28T08:20:53.347Z,9.98
2022-09-28T08:21:55.826Z,9.06
2022-09-28T08:22:58.349Z,8.72
2022-09-28T08:24:00.803Z,9.73
2022-09-28T08:25:03.518Z,8.84
2022-09-28T08:26:06.551Z,10.04
2022-09-28T08:27:09.049Z,14.45
2022-09-28T08:28:11.485Z,6.65
2022-09-28T08:29:13.917Z,10.58
2022-09-28T08:30:16.687Z,8.95
2022-09-28T08:31:19.193Z,8.59
2022-09-28T08:32:21.726Z,7.39
2022-09-28T08:33:24.158Z,7.73
2022-09-28T08:34:26.595Z,11.31
2022-09-28T08:35:29.036Z,6.07
2022-09-28T08:36:31.780Z,10.02
2022-09-28T08:37:34.275Z,5.55
2022-09-28T08:38:36.881Z,7.23
2022-09-28T08:39:39.329Z,4.70
2022-09-28T08:40:42.179Z,8.55
2022-09-28T08:41:45.105Z,9.53
2022-09-28T08:42:47.628Z,4.82
2022-09-28T08:43:50.330Z,8.46
2022-09-28T08:44:52.779Z,8.79
2022-09-28T08:45:55.251Z,5.68
2022-09-28T08:46:57.762Z,5.04
2022-09-28T08:48:00.300Z,5.09
2022-09-28T08:49:23.637Z,21.88
2022-09-28T08:50:07.727Z,6.13
2022-09-28T08:51:10.179Z,7.31
2022-09-28T08:52:12.644Z,7.09
2022-09-28T08:53:15.113Z,7.22
2022-09-28T08:54:17.576Z,5.99
2022-09-28T08:55:20.020Z,6.93
2022-09-28T08:56:22.775Z,11.88
2022-09-28T08:57:25.218Z,4.91
2022-09-28T08:58:27.715Z,5.79
2022-09-28T08:59:30.160Z,5.99
2022-09-28T09:00:32.811Z,3.33
2022-09-28T09:01:35.292Z,3.05
2022-09-28T09:02:37.970Z,5.87
2022-09-28T09:03:40.643Z,4.83
2022-09-28T09:04:43.125Z,3.22
2022-09-28T09:05:45.563Z,4.25
2022-09-28T09:06:48.236Z,5.71
2022-09-28T09:07:50.691Z,5.47
2022-09-28T09:08:53.368Z,3.43
2022-09-28T09:09:55.844Z,7.41
2022-09-28T09:10:58.297Z,6.09
2022-09-28T09:12:00.763Z,3.09
2022-09-28T09:13:03.226Z,4.65
2022-09-28T09:14:05.693Z,4.77
2022-09-28T09:15:08.190Z,8.29
2022-09-28T09:16:11.846Z,8.24
2022-09-28T09:17:14.637Z,11.73
2022-09-28T09:18:19.983Z,12.82
2022-09-28T09:19:21.528Z,6.73
2022-09-28T09:20:24.179Z,16.29
2022-09-28T09:21:26.837Z,7.37
2022-09-28T09:22:29.640Z,5.04
2022-09-28T09:23:32.094Z,2.47
2022-09-28T09:24:34.606Z,2.91
2022-09-28T09:25:38.594Z,6.33
2022-09-28T09:26:41.785Z,5.12
2022-09-28T09:27:44.223Z,3.35
2022-09-28T09:28:46.717Z,2.40
2022-09-28T09:29:49.285Z,9.17
2022-09-28T09:30:51.768Z,3.63
2022-09-28T09:31:54.474Z,4.27
2022-09-28T09:32:56.937Z,5.39
2022-09-28T09:33:59.377Z,5.78
2022-09-28T09:35:01.977Z,6.05
2022-09-28T09:36:04.516Z,3.85
2022-09-28T09:37:06.955Z,5.13
2022-09-28T09:38:09.401Z,4.75
2022-09-28T09:39:11.855Z,4.97
2022-09-28T09:40:14.842Z,4.33
2022-09-28T09:41:17.288Z,6.45
2022-09-28T09:42:19.753Z,6.15
2022-09-28T09:43:22.228Z,5.41
2022-09-28T09:44:24.769Z,3.46
2022-09-28T09:45:27.285Z,4.77
2022-09-28T09:46:29.922Z,4.68
2022-09-28T09:47:32.367Z,3.01
2022-09-28T09:48:34.808Z,3.19
2022-09-28T09:49:37.252Z,3.21
2022-09-28T09:50:40.044Z,5.52
2022-09-28T09:51:42.487Z,4.57
2022-09-28T09:52:44.938Z,6.62
2022-09-28T09:53:47.377Z,3.13
2022-09-28T09:54:49.822Z,3.84
2022-09-28T09:55:52.365Z,6.09
2022-09-28T09:56:55.111Z,4.26
2022-09-28T09:57:57.559Z,3.29
2022-09-28T09:59:00.013Z,3.30
2022-09-28T10:00:02.472Z,4.68
2022-09-28T10:01:05.042Z,3.75
2022-09-28T10:02:11.529Z,1.95
2022-09-28T10:03:12.037Z,3.26
2022-09-28T10:04:14.940Z,4.44
2022-09-28T10:05:17.384Z,2.70
2022-09-28T10:06:20.112Z,4.13
2022-09-28T10:07:22.555Z,4.28
2022-09-28T10:08:25.012Z,6.09
2022-09-28T10:09:27.454Z,4.08
2022-09-28T10:10:30.111Z,4.67
2022-09-28T10:11:32.611Z,3.43
2022-09-28T10:12:35.053Z,7.84
2022-09-28T10:13:37.526Z,3.27
2022-09-28T10:14:39.981Z,3.05
2022-09-28T10:15:42.427Z,6.52
2022-09-28T10:16:45.321Z,5.19
2022-09-28T10:17:47.890Z,4.22
2022-09-28T10:18:50.337Z,4.84
2022-09-28T10:19:52.804Z,8.46
2022-09-28T10:20:55.551Z,3.55
2022-09-28T10:21:58.341Z,2.03
2022-09-28T10:23:00.786Z,6.19
2022-09-28T10:24:03.292Z,2.70
2022-09-28T10:25:05.737Z,3.53
2022-09-28T10:26:08.579Z,2.64
2022-09-28T10:27:11.060Z,4.79
2022-09-28T10:28:13.501Z,2.63
2022-09-28T10:29:16.037Z,3.29
2022-09-28T10:30:20.189Z,3.60
2022-09-28T10:31:22.665Z,3.14
2022-09-28T10:32:25.241Z,5.38
2022-09-28T10:33:28.274Z,3.81
2022-09-28T10:34:30.723Z,5.20
2022-09-28T10:35:33.164Z,4.65
2022-09-28T10:36:35.814Z,2.49
2022-09-28T10:37:38.297Z,5.22
2022-09-28T10:38:40.907Z,3.13
2022-09-28T10:39:43.632Z,6.09
2022-09-28T10:40:46.363Z,4.34
2022-09-28T10:41:49.032Z,2.73
2022-09-28T10:42:51.556Z,4.76
2022-09-28T10:43:58.028Z,3.17
2022-09-28T10:44:58.376Z,4.15
2022-09-28T10:46:00.916Z,4.15
2022-09-28T10:47:03.626Z,6.12
2022-09-28T10:48:06.120Z,3.63
2022-09-28T10:49:08.566Z,5.88
2022-09-28T10:50:11.535Z,2.94
2022-09-28T10:51:14.073Z,6.39
2022-09-28T10:52:16.546Z,8.30
2022-09-28T10:53:19.018Z,2.58
2022-09-28T10:54:21.570Z,4.16
2022-09-28T10:55:24.027Z,3.29
2022-09-28T10:56:26.695Z,5.34
2022-09-28T10:57:29.175Z,4.04
2022-09-28T10:58:31.724Z,4.22
2022-09-28T10:59:34.195Z,4.00
2022-09-28T11:00:36.729Z,5.04
2022-09-28T11:01:39.470Z,5.33
2022-09-28T11:02:42.086Z,4.12
2022-09-28T11:03:44.654Z,5.15
2022-09-28T11:04:47.293Z,3.69
2022-09-28T11:05:49.736Z,3.85
2022-09-28T11:06:52.393Z,4.46
2022-09-28T11:07:54.948Z,3.30
2022-09-28T11:08:57.420Z,6.45
2022-09-28T11:09:59.875Z,5.87
2022-09-28T11:11:02.353Z,3.05
2022-09-28T11:12:04.818Z,8.97
2022-09-28T11:13:07.293Z,6.79
2022-09-28T11:14:09.769Z,3.87
2022-09-28T11:15:12.224Z,4.87
2022-09-28T11:16:15.210Z,8.49
2022-09-28T11:17:17.717Z,10.77
2022-09-28T11:18:20.187Z,6.49
2022-09-28T11:19:22.661Z,8.17
2022-09-28T11:20:27.988Z,4.88
2022-09-28T11:21:30.198Z,6.30
2022-09-28T11:22:32.696Z,7.09
2022-09-28T11:23:35.181Z,9.22
2022-09-28T11:24:37.646Z,5.66
2022-09-28T11:25:40.077Z,6.21
2022-09-28T11:26:42.818Z,4.47
2022-09-28T11:27:45.293Z,9.61
2022-09-28T11:28:47.729Z,4.15
2022-09-28T11:29:50.210Z,5.92
2022-09-28T11:30:52.927Z,7.83
2022-09-28T11:31:55.944Z,5.53
2022-09-28T11:32:58.402Z,4.32
2022-09-28T11:34:00.863Z,4.79
2022-09-28T11:35:03.368Z,5.45
2022-09-28T11:36:05.903Z,3.53
2022-09-28T11:37:08.350Z,2.97
2022-09-28T11:38:11.020Z,4.63
2022-09-28T11:39:13.599Z,5.10
2022-09-28T11:40:16.629Z,5.28
2022-09-28T11:41:19.353Z,4.91
2022-09-28T11:42:21.798Z,4.73
2022-09-28T11:43:24.227Z,4.28
2022-09-28T11:44:29.524Z,4.30
2022-09-28T11:45:31.057Z,5.09
2022-09-28T11:46:33.912Z,4.48
2022-09-28T11:47:36.504Z,4.10
2022-09-28T11:48:38.940Z,3.62
2022-09-28T11:49:41.374Z,6.47
2022-09-28T11:50:43.971Z,4.34
2022-09-28T11:51:46.401Z,3.59
2022-09-28T11:52:48.836Z,4.21
2022-09-28T11:53:51.273Z,4.24
2022-09-28T11:54:53.710Z,4.82
2022-09-28T11:55:56.182Z,4.36
2022-09-28T11:56:59.046Z,5.37
2022-09-28T11:58:01.481Z,7.71
2022-09-28T11:59:03.946Z,3.61
2022-09-28T12:00:06.689Z,4.42
2022-09-28T12:01:09.178Z,3.87
2022-09-28T12:02:11.931Z,7.62
2022-09-28T12:03:14.817Z,3.37
2022-09-28T12:04:17.323Z,3.06
2022-09-28T12:05:21.151Z,5.31
2022-09-28T12:06:24.341Z,3.95
2022-09-28T12:07:26.810Z,5.63
2022-09-28T12:08:29.260Z,2.67
2022-09-28T12:09:31.709Z,4.38
2022-09-28T12:10:34.345Z,4.22
2022-09-28T12:11:36.817Z,4.95
2022-09-28T12:12:39.254Z,4.93
2022-09-28T12:13:41.693Z,4.03
2022-09-28T12:14:44.135Z,3.19
2022-09-28T12:16:17.163Z,4.00
2022-09-28T12:17:05.846Z,4.21
2022-09-28T12:17:55.772Z,4.71
2022-09-28T12:20:00.690Z,7.45
2022-09-28T12:21:05.173Z,6.95
2022-09-28T12:22:08.088Z,4.21
2022-09-28T12:23:10.518Z,4.43
2022-09-28T12:24:12.955Z,5.63
2022-09-28T12:25:15.390Z,6.39
2022-09-28T12:26:18.329Z,4.00
2022-09-28T12:27:20.846Z,7.97
2022-09-28T12:28:23.283Z,4.15
2022-09-28T12:29:25.750Z,3.87
2022-09-28T12:30:28.188Z,4.28
2022-09-28T12:31:30.639Z,5.46
2022-09-28T12:32:33.372Z,7.11
2022-09-28T12:33:35.879Z,4.85
2022-09-28T12:34:38.309Z,3.02
2022-09-28T12:35:40.747Z,3.94
2022-09-28T12:36:43.492Z,3.99
2022-09-28T12:37:45.980Z,4.96
2022-09-28T12:39:08.516Z,3.05
2022-09-28T12:39:57.845Z,5.51
2022-09-28T12:40:57.282Z,6.19
2022-09-28T12:42:00.262Z,6.62
2022-09-28T12:43:02.756Z,8.89
2022-09-28T12:44:05.186Z,5.75
2022-09-28T12:45:07.925Z,4.81
2022-09-28T12:46:12.628Z,6.04
2022-09-28T12:47:15.423Z,5.82
2022-09-28T12:48:18.111Z,9.96
2022-09-28T12:50:44.769Z,4.29
2022-09-28T12:51:29.454Z,5.99
2022-09-28T12:52:31.947Z,8.06
2022-09-28T12:53:34.459Z,3.91
2022-09-28T12:54:37.158Z,6.64
2022-09-28T12:55:39.594Z,6.24
2022-09-28T12:56:42.026Z,4.47
2022-09-28T12:57:44.466Z,7.43
2022-09-28T12:58:46.943Z,5.55
2022-09-28T12:59:49.377Z,5.74
2022-09-28T13:00:51.915Z,4.19
2022-09-28T13:01:54.385Z,4.35
2022-09-28T13:02:57.056Z,4.01
2022-09-28T13:03:59.787Z,3.91
2022-09-28T13:05:02.307Z,8.35
2022-09-28T13:06:04.961Z,7.67
2022-09-28T13:07:07.400Z,6.23
2022-09-28T13:08:09.870Z,6.74
2022-09-28T13:09:12.339Z,4.34
2022-09-28T13:10:15.404Z,5.11
2022-09-28T13:11:17.867Z,6.83
2022-09-28T13:12:20.327Z,5.67
2022-09-28T13:13:22.766Z,4.77
2022-09-28T13:14:25.245Z,4.16
2022-09-28T13:15:28.006Z,4.08
2022-09-28T13:16:30.795Z,6.25
2022-09-28T13:17:33.254Z,3.89
2022-09-28T13:18:35.701Z,5.21
2022-09-28T13:19:38.257Z,6.03
2022-09-28T13:20:40.813Z,5.31
2022-09-28T13:21:43.572Z,4.58
2022-09-28T13:22:46.002Z,5.47
2022-09-28T13:23:48.459Z,6.39
2022-09-28T13:24:50.970Z,6.12
2022-09-28T13:25:53.629Z,5.11
2022-09-28T13:26:56.339Z,6.56
2022-09-28T13:27:58.782Z,4.95
2022-09-28T13:29:01.269Z,4.49
2022-09-28T13:30:03.956Z,5.59
2022-09-28T13:31:06.404Z,5.39
2022-09-28T13:32:08.897Z,8.06
2022-09-28T13:33:11.371Z,4.50
2022-09-28T13:34:13.840Z,7.83
2022-09-28T13:35:16.307Z,18.91
2022-09-28T13:36:19.350Z,44.42
2022-09-28T13:37:21.871Z,12.06
2022-09-28T13:38:24.403Z,8.21
2022-09-28T13:39:26.868Z,9.77
2022-09-28T13:40:29.489Z,7.92
2022-09-28T13:41:32.096Z,6.55
2022-09-28T13:42:34.546Z,6.17
2022-09-28T13:43:37.021Z,9.50
2022-09-28T13:44:39.460Z,7.01
2022-09-28T13:45:42.444Z,6.89
2022-09-28T13:46:45.174Z,4.48